Historique des mesures à Cassis (13260), France
Quotidien Résumé Novembre 8, 2017 Unités:  Métrique    US   Métrique/US
« Précédent (Jour)
Suivant (Jour) »
Quotidien Hebdomadaire Mensuel Annuel Période au choix
  Maximum: Minimum: Moyenne:
Température: TemperatureC °C 6.3 °C 8.4 °C
Point de rosée: DewpointC °C 1.0 °C 2.3 °C
Humidité: Humidity % 55 % 62 %
Vitesse du vent: 0 km/h 0 km/h 9.2 km/h
Rafales: 0 km/h - -
Vent:- - South
Pression: PressurehPa hPa 1011.1 hPa -
Précipitations: 0.0 mm    
Historical Graphs
 
 
Mesures pour : Novembre 8, 2017
Heure Temperature Point de rosée Pression Vent Vitesse du vent Rafales Humidité Pluie (par heure) Conditions
TemperatureC °C DewpointC °C PressurehPa hPa Calm     Humidity % HourlyPrecipMM mm SoftwareType W/m2
00:10 7.5 °C 2.4 °C 1011.1 hPa North 9.3 km/h 19.6 km/h 70 % 0.0 mm open2300-1.11 W/m2
01:11 7.9 °C 2.6 °C 1011.4 hPa Calm     69 % 0.0 mm open2300-1.11 W/m2
02:10 8.1 °C 2.8 °C 1011.7 hPa North 9.3 km/h 27.7 km/h 69 % 0.0 mm open2300-1.11 W/m2
03:11 7.9 °C 2.3 °C 1011.7 hPa North 4.2 km/h 16.3 km/h 68 % 0.0 mm open2300-1.11 W/m2
05:11 6.8 °C 2.1 °C 1011.7 hPa WNW 13.2 km/h 33.6 km/h 72 % 0.0 mm open2300-1.11 W/m2
06:10 6.3 °C 2.0 °C 1012.1 hPa Calm   4.7 km/h 74 % 0.0 mm open2300-1.11 W/m2
07:11 6.4 °C 2.1 °C 1012.8 hPa NNW 22.5 km/h 50.5 km/h 74 % 0.0 mm open2300-1.11 W/m2
08:11 6.7 °C 2.6 °C 1013.4 hPa WNW 9.8 km/h 26.7 km/h 75 % 0.0 mm open2300-1.11 W/m2
09:11 7.6 °C 2.9 °C 1014.1 hPa Calm   7.6 km/h 72 % 0.0 mm open2300-1.11 W/m2
10:10 8.4 °C 3.1 °C 1014.1 hPa NNW 6.4 km/h 27.7 km/h 69 % 0.0 mm open2300-1.11 W/m2
11:11 9.0 °C 3.4 °C 1014.1 hPa NNE 5.6 km/h 10.3 km/h 68 % 0.0 mm open2300-1.11 W/m2
13:11 10.6 °C 3.3 °C 1013.4 hPa NE 10.3 km/h 47.3 km/h 61 % 0.0 mm open2300-1.11 W/m2
14:10 10.8 °C 2.8 °C 1013.8 hPa NNW 15.6 km/h 15.6 km/h 58 % 0.0 mm open2300-1.11 W/m2
15:11 11.4 °C 2.6 °C 1013.8 hPa NNE 9.8 km/h 14.5 km/h 55 % 0.0 mm open2300-1.11 W/m2
16:10 11.4 °C 3.1 °C 1014.1 hPa NW 19.6 km/h 23 km/h 57 % 0.0 mm open2300-1.11 W/m2
18:10 10.2 °C 2.1 °C 1014.4 hPa Calm     57 % 0.0 mm open2300-1.11 W/m2
19:11 9.8 °C 1.9 °C 1015.1 hPa Calm   9.3 km/h 58 % 0.0 mm open2300-1.11 W/m2
20:10 9.4 °C 1.8 °C 1014.8 hPa NW 8 km/h 8 km/h 59 % 0.0 mm open2300-1.11 W/m2
21:11 9.4 °C 1.6 °C 1015.8 hPa North 4.2 km/h 12.7 km/h 58 % 0.0 mm open2300-1.11 W/m2
22:10 9.3 °C 1.4 °C 1015.5 hPa NW 27.7 km/h 27.7 km/h 58 % 0.0 mm open2300-1.11 W/m2
23:11 9.1 °C 1.0 °C 1014.8 hPa NW 27.7 km/h 29 km/h 57 % 0.0 mm open2300-1.11 W/m2
Observations météo à CASSIS
WU-History script by Weather Underground - 1 mb